Grover, South Dakota
Current Conditions -  °F | °C
As of 7:53 AM on Sunday 23 Nov 2014 (Local Time) from KATY Reporting Station
Overcast Overcast  
Wind Chill: 28°   Ceiling: 6500
Heat Index: 37°   Visibility: 10mi
Dew Point: 33°   Wind: 14mph
Humidity: 86%   Direction: 310°NW
Pressure: 29.48"   Gusts: NA
Location:  44.9156°N, 97.1699°W
Report Text: KATY 231353Z AUTO 31012KT 10SM OVC065 03/01 A2948 RMK AO2 SLP996 T00280006
Loading
Personal Weather Stations






























Interactive Weather Map New forecast layout! Learn more

10-Day Weather Forecast

Advertisements
Track Severe Weather on mobile